Time;durP1;ratioP1;P1;durP2;ratioP2;P2;SDS_P1;SDS_P2;PMS_P1;PMS_P2;Temp;Humidity;BMP_temperature;BMP_pressure;BME280_temperature;BME280_humidity;BME280_pressure;Samples;Min_cycle;Max_cycle;Signal;HPM_P1;HPM_P2
2022/11/29 00:01:46;;;;;;;;;;;17.30;45.90;;;;;;8329948;28;19914;-45
2022/11/29 00:05:46;;;;;;;;;;;17.30;45.90;;;;;;8329292;28;20012;-45
2022/11/29 00:09:46;;;;;;;;;;;17.30;45.90;;;;;;8328445;28;19963;-45
2022/11/29 00:13:47;;;;;;;;;;;17.30;45.90;;;;;;8331241;28;19986;-46
2022/11/29 00:17:47;;;;;;;;;;;17.30;45.80;;;;;;8334842;28;20011;-46
2022/11/29 00:21:48;;;;;;;;;;;17.30;45.90;;;;;;8334382;28;19921;-46
2022/11/29 00:25:48;;;;;;;;;;;17.30;45.80;;;;;;8334919;28;19917;-45
2022/11/29 00:29:49;;;;;;;;;;;17.30;45.80;;;;;;8334522;28;20290;-46
2022/11/29 00:33:50;;;;;;;;;;;17.30;45.80;;;;;;8334095;28;20286;-44
2022/11/29 00:37:50;;;;;;;;;;;17.30;45.80;;;;;;8334596;28;20282;-44
2022/11/29 00:41:50;;;;;;;;;;;17.30;45.80;;;;;;8334101;28;19960;-44
2022/11/29 00:45:51;;;;;;;;;;;17.30;45.80;;;;;;8334066;28;19971;-45
2022/11/29 00:49:51;;;;;;;;;;;17.30;45.80;;;;;;8333869;28;19924;-45
2022/11/29 00:53:52;;;;;;;;;;;17.30;45.80;;;;;;8333764;28;19918;-46
2022/11/29 00:57:52;;;;;;;;;;;17.30;45.80;;;;;;8333257;28;19917;-46
2022/11/29 01:01:53;;;;;;;;;;;17.30;45.90;;;;;;8333464;28;20290;-46
2022/11/29 01:05:59;;;;;;;;;;;17.30;45.90;;;;;;8333638;28;20413;-46
2022/11/29 01:09:59;;;;;;;;;;;17.30;45.80;;;;;;8333162;28;19921;-46
2022/11/29 01:14:00;;;;;;;;;;;17.30;45.80;;;;;;8333404;28;20373;-45
2022/11/29 01:18:01;;;;;;;;;;;17.30;45.80;;;;;;8333322;28;20000;-45
2022/11/29 01:22:01;;;;;;;;;;;17.30;45.80;;;;;;8332349;28;19924;-46
2022/11/29 01:26:03;;;;;;;;;;;17.30;45.80;;;;;;8331879;28;19924;-45
2022/11/29 01:30:04;;;;;;;;;;;17.30;45.80;;;;;;8332826;28;19921;-45
2022/11/29 01:34:05;;;;;;;;;;;17.30;45.80;;;;;;8332199;28;19923;-45
2022/11/29 01:38:06;;;;;;;;;;;17.30;45.80;;;;;;8332689;28;19913;-46
2022/11/29 01:42:08;;;;;;;;;;;17.30;45.80;;;;;;8332426;28;20004;-46
2022/11/29 01:46:10;;;;;;;;;;;17.30;45.80;;;;;;8332009;28;19917;-46
2022/11/29 01:50:10;;;;;;;;;;;17.30;45.90;;;;;;8332079;28;20329;-46
2022/11/29 01:54:11;;;;;;;;;;;17.30;45.90;;;;;;8331995;28;19917;-46
2022/11/29 01:58:12;;;;;;;;;;;17.30;45.90;;;;;;8331256;28;19917;-46
2022/11/29 02:02:18;;;;;;;;;;;17.30;45.80;;;;;;8332086;28;19964;-45
2022/11/29 02:06:19;;;;;;;;;;;17.30;45.90;;;;;;8331825;28;20406;-46
2022/11/29 02:10:22;;;;;;;;;;;17.30;45.80;;;;;;8331462;28;19921;-46
2022/11/29 02:14:41;;;;;;;;;;;17.30;45.80;;;;;;8315657;28;20286;-45
2022/11/29 02:19:02;;;;;;;;;;;17.30;45.80;;;;;;8330841;28;19940;-46
2022/11/29 02:23:03;;;;;;;;;;;17.30;45.80;;;;;;8330405;28;19983;-46
2022/11/29 02:27:38;;;;;;;;;;;17.30;45.80;;;;;;8331127;28;19921;-46
2022/11/29 02:31:57;;;;;;;;;;;17.30;45.80;;;;;;8256728;28;19917;-46
2022/11/29 02:36:08;;;;;;;;;;;17.30;45.80;;;;;;8330587;28;19924;-46
2022/11/29 02:40:09;;;;;;;;;;;17.30;45.80;;;;;;8330189;28;20362;-46
2022/11/29 02:44:28;;;;;;;;;;;17.30;45.80;;;;;;8330579;28;19928;-45
2022/11/29 02:48:38;;;;;;;;;;;17.30;45.80;;;;;;8330268;28;20375;-45
2022/11/29 02:52:58;;;;;;;;;;;17.30;45.80;;;;;;8330572;28;19967;-45
2022/11/29 02:57:04;;;;;;;;;;;17.30;45.80;;;;;;8319815;28;19918;-45
2022/11/29 03:01:25;;;;;;;;;;;17.30;45.80;;;;;;8329799;28;19924;-46
2022/11/29 03:05:35;;;;;;;;;;;17.30;45.80;;;;;;8330045;28;19933;-45
2022/11/29 03:09:39;;;;;;;;;;;17.30;45.80;;;;;;8330014;28;20289;-46
2022/11/29 03:13:48;;;;;;;;;;;17.30;45.90;;;;;;8329994;28;19921;-45
2022/11/29 03:18:08;;;;;;;;;;;17.30;45.80;;;;;;8329896;28;19921;-45
2022/11/29 03:22:08;;;;;;;;;;;17.30;45.90;;;;;;8329618;28;20000;-45
2022/11/29 03:26:12;;;;;;;;;;;17.30;45.80;;;;;;8329991;28;19963;-46
2022/11/29 03:30:15;;;;;;;;;;;17.30;45.80;;;;;;8329862;28;20047;-46
2022/11/29 03:34:24;;;;;;;;;;;17.30;45.90;;;;;;8329193;28;20350;-46
2022/11/29 03:38:31;;;;;;;;;;;17.30;45.90;;;;;;8329945;28;20301;-45
2022/11/29 03:42:36;;;;;;;;;;;17.30;45.90;;;;;;8329191;28;19963;-47
2022/11/29 03:46:48;;;;;;;;;;;17.30;45.90;;;;;;8329388;28;19978;-45
2022/11/29 03:51:04;;;;;;;;;;;17.30;45.90;;;;;;8334810;28;20263;-46
2022/11/29 03:55:08;;;;;;;;;;;17.30;46.40;;;;;;8335255;28;19917;-45
2022/11/29 03:59:27;;;;;;;;;;;17.30;45.80;;;;;;8335628;28;19928;-45
2022/11/29 04:03:46;;;;;;;;;;;17.30;45.80;;;;;;8335503;28;19932;-45
2022/11/29 04:07:49;;;;;;;;;;;17.30;45.80;;;;;;8335371;28;20051;-46
2022/11/29 04:12:04;;;;;;;;;;;17.30;45.80;;;;;;8335025;28;19986;-45
2022/11/29 04:16:34;;;;;;;;;;;17.30;45.90;;;;;;8333837;28;22260;-45
2022/11/29 04:20:53;;;;;;;;;;;17.30;46.00;;;;;;8334863;28;19917;-45
2022/11/29 04:25:02;;;;;;;;;;;17.30;46.00;;;;;;8334267;28;19933;-45
2022/11/29 04:29:06;;;;;;;;;;;17.30;45.90;;;;;;8334661;28;19996;-45
2022/11/29 04:33:28;;;;;;;;;;;17.30;45.90;;;;;;8334619;28;19913;-44
2022/11/29 04:37:47;;;;;;;;;;;17.30;45.90;;;;;;8334373;28;19917;-45
2022/11/29 04:42:06;;;;;;;;;;;17.40;45.90;;;;;;8334177;28;20012;-44
2022/11/29 04:46:07;;;;;;;;;;;17.40;45.90;;;;;;8333760;28;19986;-45
2022/11/29 04:50:07;;;;;;;;;;;17.50;45.90;;;;;;8333981;28;19971;-45
2022/11/29 04:54:14;;;;;;;;;;;17.40;45.70;;;;;;8333932;28;19917;-45
2022/11/29 04:58:18;;;;;;;;;;;17.50;45.80;;;;;;8333479;28;19924;-45
2022/11/29 05:02:31;;;;;;;;;;;17.50;45.70;;;;;;8333410;28;19968;-45
2022/11/29 05:06:43;;;;;;;;;;;17.50;45.80;;;;;;8331712;28;19917;-44
2022/11/29 05:11:02;;;;;;;;;;;17.50;45.70;;;;;;8333671;28;19987;-45
2022/11/29 05:15:15;;;;;;;;;;;17.50;45.80;;;;;;8333440;28;19918;-45
2022/11/29 05:19:15;;;;;;;;;;;17.50;45.80;;;;;;8332719;28;19918;-45
2022/11/29 05:23:24;;;;;;;;;;;17.40;45.80;;;;;;8333015;28;20008;-45
2022/11/29 05:27:37;;;;;;;;;;;17.50;45.80;;;;;;8332885;28;20361;-46
2022/11/29 05:31:55;;;;;;;;;;;17.50;45.90;;;;;;8332584;28;19917;-45
2022/11/29 05:36:10;;;;;;;;;;;17.50;45.90;;;;;;8332702;28;20020;-45
2022/11/29 05:40:29;;;;;;;;;;;17.40;45.80;;;;;;8331909;28;19924;-45
2022/11/29 05:44:37;;;;;;;;;;;17.40;45.80;;;;;;8332521;28;20298;-45
2022/11/29 05:48:45;;;;;;;;;;;17.40;45.80;;;;;;8332099;28;19913;-45
2022/11/29 05:52:52;;;;;;;;;;;17.40;45.90;;;;;;8332109;28;19917;-45
2022/11/29 05:56:55;;;;;;;;;;;17.40;45.90;;;;;;8331791;28;19924;-45
2022/11/29 06:01:14;;;;;;;;;;;17.40;45.90;;;;;;8331364;28;19924;-46
2022/11/29 06:05:29;;;;;;;;;;;17.40;45.90;;;;;;8331501;28;20298;-45
2022/11/29 06:09:36;;;;;;;;;;;17.40;46.00;;;;;;8331115;28;20420;-43
2022/11/29 06:13:52;;;;;;;;;;;17.40;46.00;;;;;;8331038;28;19921;-45
2022/11/29 06:18:12;;;;;;;;;;;17.30;45.90;;;;;;8331701;28;19917;-45
2022/11/29 06:22:31;;;;;;;;;;;17.40;46.00;;;;;;8330842;28;19917;-45
2022/11/29 06:26:50;;;;;;;;;;;17.30;45.90;;;;;;8331171;28;20012;-45
2022/11/29 06:30:59;;;;;;;;;;;17.30;46.00;;;;;;8330611;28;19917;-45
2022/11/29 06:35:06;;;;;;;;;;;17.30;46.00;;;;;;8331193;28;19960;-45
2022/11/29 06:39:08;;;;;;;;;;;17.30;46.00;;;;;;8330724;28;19994;-45
2022/11/29 06:43:08;;;;;;;;;;;17.30;46.00;;;;;;8330421;28;19921;-44
2022/11/29 06:47:16;;;;;;;;;;;17.30;46.60;;;;;;8330644;28;19940;-44
2022/11/29 06:51:24;;;;;;;;;;;17.30;46.00;;;;;;8330521;28;19917;-44
2022/11/29 06:55:30;;;;;;;;;;;17.30;46.00;;;;;;8329827;28;19921;-44
2022/11/29 06:59:39;;;;;;;;;;;17.30;46.00;;;;;;8330225;28;19949;-44
2022/11/29 07:03:52;;;;;;;;;;;17.30;46.10;;;;;;8330010;28;19921;-44
2022/11/29 07:07:54;;;;;;;;;;;17.20;46.00;;;;;;8329886;28;19928;-45
2022/11/29 07:11:55;;;;;;;;;;;17.30;46.00;;;;;;8329984;28;19921;-45
2022/11/29 07:16:01;;;;;;;;;;;17.20;46.00;;;;;;8329551;28;20374;-45
2022/11/29 07:20:08;;;;;;;;;;;17.30;46.10;;;;;;8329878;28;19919;-45
2022/11/29 07:24:18;;;;;;;;;;;17.20;46.00;;;;;;8335032;28;19956;-45
2022/11/29 07:28:18;;;;;;;;;;;17.20;46.00;;;;;;8336184;28;19925;-45
2022/11/29 07:32:27;;;;;;;;;;;17.30;46.10;;;;;;8336405;28;20263;-46
2022/11/29 07:36:40;;;;;;;;;;;17.20;46.00;;;;;;8336433;28;20008;-46
2022/11/29 07:40:40;;;;;;;;;;;17.20;46.00;;;;;;8335740;28;19924;-44
2022/11/29 07:44:44;;;;;;;;;;;17.20;46.10;;;;;;8335827;28;19921;-45
2022/11/29 07:48:44;;;;;;;;;;;17.20;46.00;;;;;;8335736;28;19965;-44
2022/11/29 07:52:45;;;;;;;;;;;17.20;46.00;;;;;;8335683;28;19921;-44
2022/11/29 07:56:46;;;;;;;;;;;17.20;46.00;;;;;;8336211;28;19917;-44
2022/11/29 08:00:46;;;;;;;;;;;17.20;46.00;;;;;;8335046;28;20393;-44
2022/11/29 08:04:47;;;;;;;;;;;17.20;46.00;;;;;;8305720;28;20068;-44
2022/11/29 08:08:47;;;;;;;;;;;17.20;46.00;;;;;;8335420;28;20361;-45
2022/11/29 08:12:49;;;;;;;;;;;17.20;46.00;;;;;;8334657;28;19925;-43
2022/11/29 08:16:49;;;;;;;;;;;17.20;46.00;;;;;;8335018;28;19917;-45
2022/11/29 08:20:49;;;;;;;;;;;17.20;46.10;;;;;;8334821;28;19917;-45
2022/11/29 08:24:50;;;;;;;;;;;17.20;46.10;;;;;;8334299;28;20370;-45
2022/11/29 08:28:51;;;;;;;;;;;17.20;46.10;;;;;;8334920;28;19913;-45
2022/11/29 08:32:52;;;;;;;;;;;17.20;46.00;;;;;;8334905;28;19917;-44
2022/11/29 08:36:53;;;;;;;;;;;17.20;46.00;;;;;;8333334;28;19918;-46
2022/11/29 08:40:58;;;;;;;;;;;17.20;46.00;;;;;;8334411;28;19927;-45
2022/11/29 08:44:59;;;;;;;;;;;17.30;46.10;;;;;;8334081;28;20004;-45
2022/11/29 08:48:59;;;;;;;;;;;17.30;46.10;;;;;;8333857;28;20298;-46
2022/11/29 08:57:19;;;;;;;;;;;17.40;46.10;;;;;;8336495;28;19956;-47
2022/11/29 09:01:19;;;;;;;;;;;17.50;46.00;;;;;;8333129;28;19917;-46
2022/11/29 09:05:20;;;;;;;;;;;17.50;45.90;;;;;;8333552;28;20382;-46
2022/11/29 09:09:20;;;;;;;;;;;17.50;45.80;;;;;;8333415;28;20293;-46
2022/11/29 09:13:21;;;;;;;;;;;17.50;45.70;;;;;;8332570;28;20359;-45
2022/11/29 09:17:21;;;;;;;;;;;17.50;45.70;;;;;;8333358;28;19917;-46
2022/11/29 09:21:23;;;;;;;;;;;17.50;45.70;;;;;;8333154;28;19917;-45
2022/11/29 09:25:24;;;;;;;;;;;17.50;45.80;;;;;;8332432;28;20370;-45
2022/11/29 09:29:24;;;;;;;;;;;17.50;45.80;;;;;;8333242;28;19924;-45
2022/11/29 09:33:25;;;;;;;;;;;17.50;45.80;;;;;;8332743;28;19928;-46
2022/11/29 09:37:25;;;;;;;;;;;17.50;45.80;;;;;;8331997;28;19928;-45
2022/11/29 09:41:35;;;;;;;;;;;17.50;45.90;;;;;;8332305;28;19924;-46
2022/11/29 09:45:38;;;;;;;;;;;17.50;45.90;;;;;;8330893;28;20008;-47
2022/11/29 09:49:47;;;;;;;;;;;17.50;45.90;;;;;;8332349;28;19917;-47
2022/11/29 09:53:47;;;;;;;;;;;17.50;45.90;;;;;;8360468;28;19917;-46
2022/11/29 09:57:48;;;;;;;;;;;17.50;45.90;;;;;;8364347;28;19968;-46
2022/11/29 10:01:53;;;;;;;;;;;17.50;45.90;;;;;;8364773;28;19940;-49
2022/11/29 10:05:57;;;;;;;;;;;17.50;45.90;;;;;;8364748;28;19964;-45
2022/11/29 10:10:04;;;;;;;;;;;17.50;45.90;;;;;;8364257;28;19928;-45
2022/11/29 10:14:19;;;;;;;;;;;17.50;46.00;;;;;;8364597;28;19967;-43
2022/11/29 10:18:20;;;;;;;;;;;17.50;46.00;;;;;;8364285;28;19982;-44
2022/11/29 10:22:36;;;;;;;;;;;17.50;46.00;;;;;;8363761;28;19956;-46
2022/11/29 10:26:39;;;;;;;;;;;17.50;46.00;;;;;;8364128;28;19938;-45
2022/11/29 10:30:41;;;;;;;;;;;17.60;46.00;;;;;;8363590;28;19924;-45
2022/11/29 10:34:42;;;;;;;;;;;17.50;46.00;;;;;;8363920;28;19921;-45
2022/11/29 10:38:43;;;;;;;;;;;17.50;46.00;;;;;;8363943;28;19944;-45
2022/11/29 10:42:53;;;;;;;;;;;17.50;46.00;;;;;;8363225;28;19925;-48
2022/11/29 10:46:54;;;;;;;;;;;17.50;46.00;;;;;;8363778;28;19913;-46
2022/11/29 10:50:55;;;;;;;;;;;17.50;46.00;;;;;;8363523;28;19920;-45
2022/11/29 10:54:57;;;;;;;;;;;17.50;46.00;;;;;;8363148;28;20292;-45
2022/11/29 10:59:01;;;;;;;;;;;17.50;46.10;;;;;;8363118;28;19924;-46
2022/11/29 11:03:15;;;;;;;;;;;17.50;46.00;;;;;;8358111;28;19927;-44
2022/11/29 11:07:21;;;;;;;;;;;17.50;46.00;;;;;;8308191;28;20011;-46
2022/11/29 11:11:29;;;;;;;;;;;17.50;46.00;;;;;;8330230;28;19917;-46
2022/11/29 11:15:30;;;;;;;;;;;17.50;46.00;;;;;;8329853;28;19913;-44
2022/11/29 11:19:32;;;;;;;;;;;17.60;46.00;;;;;;8330118;28;19987;-46
2022/11/29 11:23:34;;;;;;;;;;;17.50;46.00;;;;;;8329986;28;19971;-46
2022/11/29 11:27:38;;;;;;;;;;;17.50;45.90;;;;;;8329641;28;19921;-45
2022/11/29 11:31:39;;;;;;;;;;;17.50;45.90;;;;;;8329934;28;19917;-46
2022/11/29 11:35:39;;;;;;;;;;;17.50;46.00;;;;;;8329967;28;19920;-46
2022/11/29 11:39:40;;;;;;;;;;;17.50;46.00;;;;;;8329390;28;19925;-46
2022/11/29 11:43:41;;;;;;;;;;;17.50;46.00;;;;;;8329978;28;19925;-46
2022/11/29 11:47:52;;;;;;;;;;;17.60;46.00;;;;;;8329635;28;19974;-46
2022/11/29 11:51:52;;;;;;;;;;;17.50;46.00;;;;;;8329210;28;19921;-46
2022/11/29 11:55:55;;;;;;;;;;;17.50;46.00;;;;;;8329743;28;20393;-45
2022/11/29 11:59:57;;;;;;;;;;;17.50;46.00;;;;;;8329472;28;19917;-44
2022/11/29 12:03:57;;;;;;;;;;;17.60;46.00;;;;;;8329061;28;19925;-45
2022/11/29 12:08:00;;;;;;;;;;;17.60;46.00;;;;;;8329729;28;19921;-44
2022/11/29 12:12:04;;;;;;;;;;;17.60;46.10;;;;;;8334780;28;20003;-44
2022/11/29 12:16:09;;;;;;;;;;;17.50;46.00;;;;;;8334974;28;19918;-47
2022/11/29 12:20:44;;;;;;;;;;;17.60;46.10;;;;;;8334950;28;19918;-45
2022/11/29 12:24:58;;;;;;;;;;;17.50;46.10;;;;;;8251628;28;19932;-46
2022/11/29 12:28:59;;;;;;;;;;;17.50;46.00;;;;;;8322956;28;19921;-44
2022/11/29 12:33:15;;;;;;;;;;;17.50;46.10;;;;;;8334461;28;20374;-44
2022/11/29 12:37:25;;;;;;;;;;;17.50;46.10;;;;;;8334098;28;19921;-45
2022/11/29 12:41:47;;;;;;;;;;;17.50;46.10;;;;;;8334866;28;19963;-45
2022/11/29 12:45:47;;;;;;;;;;;17.50;46.10;;;;;;8333859;28;20008;-45
2022/11/29 12:49:59;;;;;;;;;;;17.50;46.10;;;;;;8334208;28;19924;-45
2022/11/29 12:54:00;;;;;;;;;;;17.50;46.10;;;;;;8334029;28;20382;-44
2022/11/29 12:58:13;;;;;;;;;;;17.50;46.10;;;;;;8333390;28;19917;-44
2022/11/29 13:02:13;;;;;;;;;;;17.50;46.10;;;;;;8333746;28;19940;-45
2022/11/29 13:06:37;;;;;;;;;;;17.50;46.10;;;;;;8333785;28;19964;-44
2022/11/29 13:10:46;;;;;;;;;;;17.60;46.10;;;;;;8333341;28;19927;-45
2022/11/29 13:14:48;;;;;;;;;;;17.50;46.10;;;;;;8333432;28;20263;-47
2022/11/29 13:19:01;;;;;;;;;;;17.50;46.10;;;;;;8332745;28;19925;-48
2022/11/29 13:23:17;;;;;;;;;;;17.50;46.10;;;;;;8332695;28;19929;-48
2022/11/29 13:27:27;;;;;;;;;;;17.50;46.10;;;;;;8332936;28;19917;-48
2022/11/29 13:31:28;;;;;;;;;;;17.50;46.10;;;;;;8332509;28;19920;-46
2022/11/29 13:35:51;;;;;;;;;;;17.50;46.20;;;;;;8332663;28;19923;-46
2022/11/29 13:40:24;;;;;;;;;;;17.50;46.20;;;;;;8323870;28;20409;-48
2022/11/29 13:44:28;;;;;;;;;;;17.50;46.20;;;;;;8298752;28;20377;-45
2022/11/29 13:48:33;;;;;;;;;;;17.50;46.20;;;;;;8331703;28;19924;-44
2022/11/29 13:52:39;;;;;;;;;;;17.50;46.20;;;;;;8332154;28;19921;-46
2022/11/29 13:56:45;;;;;;;;;;;17.50;46.20;;;;;;8331911;28;19920;-48
2022/11/29 14:00:45;;;;;;;;;;;17.50;46.20;;;;;;8331259;28;20358;-45
2022/11/29 14:04:46;;;;;;;;;;;17.50;46.20;;;;;;8331589;28;19978;-45
2022/11/29 14:08:55;;;;;;;;;;;17.50;46.20;;;;;;8330958;28;19921;-47
2022/11/29 14:12:58;;;;;;;;;;;17.50;46.20;;;;;;8330858;28;20301;-46
2022/11/29 14:17:03;;;;;;;;;;;17.50;46.20;;;;;;8331193;28;19917;-46
2022/11/29 14:21:03;;;;;;;;;;;17.50;46.30;;;;;;8330898;28;19990;-47
2022/11/29 14:25:21;;;;;;;;;;;17.50;46.20;;;;;;8330867;28;19979;-46
2022/11/29 14:29:41;;;;;;;;;;;17.50;46.30;;;;;;8330574;28;19924;-46
2022/11/29 14:34:16;;;;;;;;;;;17.50;46.30;;;;;;8329909;28;20371;-46
2022/11/29 14:38:18;;;;;;;;;;;17.50;46.30;;;;;;8256422;28;19928;-46
2022/11/29 14:42:19;;;;;;;;;;;17.40;46.20;;;;;;8330574;28;19945;-48
2022/11/29 14:46:26;;;;;;;;;;;17.50;46.30;;;;;;8329909;28;20302;-46
2022/11/29 14:50:29;;;;;;;;;;;17.40;46.30;;;;;;8330034;28;19924;-46
2022/11/29 14:54:31;;;;;;;;;;;17.50;46.30;;;;;;8329893;28;19967;-46
2022/11/29 14:58:31;;;;;;;;;;;17.50;46.30;;;;;;8330629;28;20007;-45
2022/11/29 15:02:40;;;;;;;;;;;17.50;46.30;;;;;;8329724;28;20275;-47
2022/11/29 15:06:41;;;;;;;;;;;17.40;46.30;;;;;;8329432;28;20393;-45
2022/11/29 15:10:52;;;;;;;;;;;17.50;46.30;;;;;;8329738;28;19917;-46
2022/11/29 15:15:11;;;;;;;;;;;17.50;46.30;;;;;;8329896;28;19924;-48
2022/11/29 15:19:31;;;;;;;;;;;17.50;46.30;;;;;;8329676;28;19924;-48
2022/11/29 15:23:38;;;;;;;;;;;17.50;46.30;;;;;;8329769;28;19972;-47
2022/11/29 15:27:52;;;;;;;;;;;17.60;46.30;;;;;;8329507;28;19914;-48
2022/11/29 15:31:53;;;;;;;;;;;17.60;46.30;;;;;;8330123;28;19913;-47
2022/11/29 15:36:01;;;;;;;;;;;17.70;46.30;;;;;;8329747;28;20373;-46
2022/11/29 15:40:09;;;;;;;;;;;17.70;46.30;;;;;;8329251;28;19917;-47
2022/11/29 15:44:19;;;;;;;;;;;17.70;46.70;;;;;;8331097;28;20408;-46
2022/11/29 15:48:22;;;;;;;;;;;17.70;46.10;;;;;;8335880;28;20382;-48
2022/11/29 15:52:26;;;;;;;;;;;17.70;46.20;;;;;;8335598;28;20379;-48
2022/11/29 15:56:29;;;;;;;;;;;17.70;46.20;;;;;;8335838;28;20374;-45
2022/11/29 16:00:32;;;;;;;;;;;17.70;46.20;;;;;;8335137;28;19917;-48
2022/11/29 16:04:35;;;;;;;;;;;17.70;46.30;;;;;;8335394;28;19925;-46
2022/11/29 16:08:40;;;;;;;;;;;17.70;46.30;;;;;;8335921;28;20335;-46
2022/11/29 16:13:01;;;;;;;;;;;17.60;46.20;;;;;;8335369;28;20378;-48
2022/11/29 16:17:02;;;;;;;;;;;17.70;46.30;;;;;;8334955;28;19917;-50
2022/11/29 16:21:04;;;;;;;;;;;17.70;46.40;;;;;;8335167;28;19917;-47
2022/11/29 16:25:13;;;;;;;;;;;17.60;46.30;;;;;;8334358;28;19936;-47
2022/11/29 16:29:23;;;;;;;;;;;17.70;46.40;;;;;;8335105;28;19928;-49
2022/11/29 16:33:23;;;;;;;;;;;17.70;46.40;;;;;;8334690;28;19921;-45
2022/11/29 16:37:25;;;;;;;;;;;17.60;46.30;;;;;;8334332;28;20004;-44
2022/11/29 16:41:31;;;;;;;;;;;17.70;46.30;;;;;;8334406;28;20329;-46
2022/11/29 16:45:33;;;;;;;;;;;17.60;46.30;;;;;;8333761;28;19929;-46
2022/11/29 16:49:34;;;;;;;;;;;17.60;46.40;;;;;;8334310;28;20016;-46
2022/11/29 16:53:41;;;;;;;;;;;17.60;46.40;;;;;;8334446;28;20271;-46
2022/11/29 16:57:41;;;;;;;;;;;17.60;46.30;;;;;;8333871;28;19913;-47
2022/11/29 17:01:43;;;;;;;;;;;17.60;46.40;;;;;;8334147;28;19931;-46
2022/11/29 17:05:43;;;;;;;;;;;17.60;46.40;;;;;;8325114;28;19968;-46
2022/11/29 17:09:44;;;;;;;;;;;17.60;46.40;;;;;;8313100;28;20063;-46
2022/11/29 17:13:48;;;;;;;;;;;17.60;46.40;;;;;;8333967;28;20306;-46
2022/11/29 17:17:49;;;;;;;;;;;17.50;46.40;;;;;;8334184;28;19913;-46
2022/11/29 17:21:50;;;;;;;;;;;17.60;47.00;;;;;;8333388;28;20362;-46
2022/11/29 17:25:57;;;;;;;;;;;17.60;46.40;;;;;;8334138;28;20048;-47
2022/11/29 17:29:57;;;;;;;;;;;17.60;46.40;;;;;;8333986;28;19928;-46
2022/11/29 17:33:59;;;;;;;;;;;17.50;46.40;;;;;;8332821;28;20005;-46
2022/11/29 17:38:00;;;;;;;;;;;17.60;46.50;;;;;;8333001;28;19967;-46
2022/11/29 17:42:00;;;;;;;;;;;17.60;46.40;;;;;;8332631;28;19917;-46
2022/11/29 17:46:12;;;;;;;;;;;17.50;46.40;;;;;;8331861;28;20422;-46
2022/11/29 17:50:12;;;;;;;;;;;17.50;46.40;;;;;;8332106;28;20004;-46
2022/11/29 17:54:12;;;;;;;;;;;17.50;46.50;;;;;;8331977;28;19917;-47
2022/11/29 17:58:13;;;;;;;;;;;17.50;46.50;;;;;;8331590;28;19956;-49
2022/11/29 18:02:13;;;;;;;;;;;17.50;46.40;;;;;;8332091;28;20345;-47
2022/11/29 18:06:15;;;;;;;;;;;17.50;46.40;;;;;;8330915;28;19925;-47
2022/11/29 18:10:15;;;;;;;;;;;17.50;46.40;;;;;;8341232;28;19929;-47
2022/11/29 18:14:17;;;;;;;;;;;17.50;46.40;;;;;;8331338;28;19913;-46
2022/11/29 18:18:18;;;;;;;;;;;17.50;46.40;;;;;;8331536;28;20016;-46
2022/11/29 18:22:18;;;;;;;;;;;17.50;46.50;;;;;;8330740;28;19940;-46
2022/11/29 18:26:20;;;;;;;;;;;17.50;46.50;;;;;;8331072;28;20436;-46
2022/11/29 18:30:21;;;;;;;;;;;17.50;46.50;;;;;;8331004;28;19913;-46
2022/11/29 18:34:21;;;;;;;;;;;17.50;46.50;;;;;;8330513;28;19923;-46
2022/11/29 18:38:22;;;;;;;;;;;17.50;46.60;;;;;;8331347;28;19914;-49
2022/11/29 18:42:22;;;;;;;;;;;17.50;46.60;;;;;;8330552;28;20078;-47
2022/11/29 18:46:24;;;;;;;;;;;17.50;46.60;;;;;;8329845;28;19925;-47
2022/11/29 18:50:24;;;;;;;;;;;17.50;46.60;;;;;;8330570;28;20278;-45
2022/11/29 18:54:25;;;;;;;;;;;17.50;46.60;;;;;;8330436;28;20043;-46
2022/11/29 18:58:25;;;;;;;;;;;17.50;46.60;;;;;;8330286;28;19928;-46
2022/11/29 19:02:25;;;;;;;;;;;17.50;46.50;;;;;;8330003;28;19921;-46
2022/11/29 19:06:27;;;;;;;;;;;17.50;47.00;;;;;;8329932;28;19925;-46
2022/11/29 19:10:27;;;;;;;;;;;17.50;46.50;;;;;;8329201;28;19921;-45
2022/11/29 19:14:31;;;;;;;;;;;17.50;46.60;;;;;;8330399;28;19921;-46
2022/11/29 19:18:31;;;;;;;;;;;17.50;46.60;;;;;;8331811;28;19917;-46
2022/11/29 19:22:32;;;;;;;;;;;17.50;46.60;;;;;;8336902;28;20007;-46
2022/11/29 19:26:33;;;;;;;;;;;17.50;46.70;;;;;;8336751;28;19929;-46
2022/11/29 19:30:33;;;;;;;;;;;17.50;46.70;;;;;;8335829;28;19917;-46
2022/11/29 19:34:34;;;;;;;;;;;17.50;46.70;;;;;;8336181;28;19913;-46
2022/11/29 19:38:34;;;;;;;;;;;17.50;46.70;;;;;;8336445;28;20289;-46
2022/11/29 19:42:36;;;;;;;;;;;17.40;46.70;;;;;;8335672;28;19921;-46
2022/11/29 19:46:47;;;;;;;;;;;17.40;46.70;;;;;;8336395;28;20370;-46
2022/11/29 19:50:47;;;;;;;;;;;17.40;46.70;;;;;;8335882;28;19917;-46
2022/11/29 19:54:48;;;;;;;;;;;17.50;46.80;;;;;;8335298;28;20489;-45
2022/11/29 19:58:48;;;;;;;;;;;17.40;46.80;;;;;;8335906;28;19918;-46
2022/11/29 20:02:49;;;;;;;;;;;17.40;46.80;;;;;;8334109;28;19917;-46
2022/11/29 20:06:50;;;;;;;;;;;17.50;46.90;;;;;;8334948;28;19929;-46
2022/11/29 20:10:50;;;;;;;;;;;17.40;46.90;;;;;;8335704;28;19917;-45
2022/11/29 20:14:51;;;;;;;;;;;17.50;46.90;;;;;;8335227;28;19924;-46
2022/11/29 20:18:52;;;;;;;;;;;17.50;46.90;;;;;;8335023;28;19924;-45
2022/11/29 20:22:52;;;;;;;;;;;17.40;46.90;;;;;;8335152;28;20429;-46
2022/11/29 20:26:53;;;;;;;;;;;17.40;46.90;;;;;;8335004;28;19921;-46
2022/11/29 20:30:53;;;;;;;;;;;17.40;47.00;;;;;;8333521;28;19967;-47
2022/11/29 20:34:54;;;;;;;;;;;17.40;47.00;;;;;;8334680;28;19996;-46
2022/11/29 20:39:13;;;;;;;;;;;17.40;46.90;;;;;;8335047;28;20360;-46
2022/11/29 20:43:37;;;;;;;;;;;17.40;46.90;;;;;;8333925;28;19983;-46
2022/11/29 20:47:50;;;;;;;;;;;17.50;47.00;;;;;;8326154;28;19924;-46
2022/11/29 20:52:11;;;;;;;;;;;17.40;47.00;;;;;;8333768;28;19917;-46
2022/11/29 20:56:12;;;;;;;;;;;17.40;47.00;;;;;;8333998;28;19958;-46
2022/11/29 21:00:14;;;;;;;;;;;17.50;47.00;;;;;;8334098;28;20286;-46
2022/11/29 21:04:14;;;;;;;;;;;17.40;47.00;;;;;;8333546;28;19921;-48
2022/11/29 21:08:16;;;;;;;;;;;17.40;47.00;;;;;;8333504;28;19929;-48
2022/11/29 21:12:16;;;;;;;;;;;17.40;47.00;;;;;;8333521;28;19917;-47
2022/11/29 21:16:17;;;;;;;;;;;17.40;47.00;;;;;;8332803;28;19940;-47
2022/11/29 21:20:20;;;;;;;;;;;17.40;47.10;;;;;;8333221;28;19920;-50
2022/11/29 21:24:29;;;;;;;;;;;17.40;47.10;;;;;;8333289;28;19943;-46
2022/11/29 21:28:40;;;;;;;;;;;17.40;47.10;;;;;;8332827;28;19918;-46
2022/11/29 21:32:41;;;;;;;;;;;17.40;47.10;;;;;;8333066;28;19917;-47
2022/11/29 21:36:42;;;;;;;;;;;17.40;47.00;;;;;;8332337;28;19924;-46
2022/11/29 21:40:42;;;;;;;;;;;17.40;47.00;;;;;;8332692;28;19991;-48
2022/11/29 21:44:43;;;;;;;;;;;17.40;47.00;;;;;;8332755;28;19925;-45
2022/11/29 21:48:43;;;;;;;;;;;17.40;47.00;;;;;;8332066;28;20289;-45
2022/11/29 21:52:44;;;;;;;;;;;17.40;47.00;;;;;;8332536;28;19917;-46
2022/11/29 21:56:44;;;;;;;;;;;17.40;47.10;;;;;;8332286;28;19923;-45
2022/11/29 22:00:45;;;;;;;;;;;17.40;47.10;;;;;;8331551;28;19921;-45
2022/11/29 22:04:45;;;;;;;;;;;17.40;47.10;;;;;;8332181;28;20008;-46
2022/11/29 22:08:46;;;;;;;;;;;17.40;47.20;;;;;;8331698;28;19928;-46
2022/11/29 22:12:47;;;;;;;;;;;17.40;47.20;;;;;;8331158;28;20278;-46
2022/11/29 22:16:49;;;;;;;;;;;17.50;47.20;;;;;;8331805;28;19924;-46
2022/11/29 22:20:49;;;;;;;;;;;17.50;47.20;;;;;;8331574;28;19921;-46
2022/11/29 22:24:50;;;;;;;;;;;17.50;47.20;;;;;;8331003;28;19979;-47
2022/11/29 22:28:50;;;;;;;;;;;17.50;47.30;;;;;;8331239;28;19917;-47
2022/11/29 22:32:51;;;;;;;;;;;17.50;47.20;;;;;;8329749;28;19917;-47
2022/11/29 22:36:51;;;;;;;;;;;17.50;47.20;;;;;;8330492;28;19924;-46
2022/11/29 22:40:51;;;;;;;;;;;17.50;47.20;;;;;;8330821;28;20019;-47
2022/11/29 22:44:52;;;;;;;;;;;17.50;47.20;;;;;;8330817;28;19921;-48
2022/11/29 22:48:54;;;;;;;;;;;17.50;47.20;;;;;;8330311;28;19924;-48
2022/11/29 22:52:54;;;;;;;;;;;17.50;47.30;;;;;;8330226;28;19924;-46
2022/11/29 22:56:55;;;;;;;;;;;17.50;47.30;;;;;;8330622;28;19921;-46
2022/11/29 23:01:12;;;;;;;;;;;17.50;47.30;;;;;;8329797;28;19913;-46
2022/11/29 23:05:13;;;;;;;;;;;17.50;47.30;;;;;;8298169;28;20020;-49
2022/11/29 23:09:15;;;;;;;;;;;17.50;47.30;;;;;;8324959;28;19966;-47
2022/11/29 23:13:15;;;;;;;;;;;17.50;47.30;;;;;;8329661;28;19998;-47
2022/11/29 23:17:15;;;;;;;;;;;17.50;47.30;;;;;;8330057;28;19918;-46
2022/11/29 23:21:20;;;;;;;;;;;17.50;47.30;;;;;;8329825;28;19917;-46
2022/11/29 23:25:21;;;;;;;;;;;17.60;47.30;;;;;;8330066;28;19921;-46
2022/11/29 23:29:21;;;;;;;;;;;17.50;47.30;;;;;;8330206;28;19923;-45
2022/11/29 23:33:22;;;;;;;;;;;17.50;47.30;;;;;;8329933;28;19917;-46
2022/11/29 23:37:22;;;;;;;;;;;17.60;47.30;;;;;;8329070;28;20377;-46
2022/11/29 23:41:23;;;;;;;;;;;17.50;47.30;;;;;;8329885;28;19917;-46
2022/11/29 23:45:23;;;;;;;;;;;17.50;47.30;;;;;;8329703;28;19929;-46
2022/11/29 23:49:24;;;;;;;;;;;17.50;47.40;;;;;;8328971;28;19918;-46